sensor_id;sensor_type;location;lat;lon;timestamp;P1;durP1;ratioP1;P2;durP2;ratioP2
3993;SDS011;2011;48.238;13.948;2023-03-01T00:00:54;31.70;;;15.10;;
3993;SDS011;2011;48.238;13.948;2023-03-01T00:03:26;25.17;;;13.73;;
3993;SDS011;2011;48.238;13.948;2023-03-01T00:05:53;22.33;;;13.43;;
3993;SDS011;2011;48.238;13.948;2023-03-01T00:08:22;30.95;;;14.45;;
3993;SDS011;2011;48.238;13.948;2023-03-01T00:10:49;23.40;;;14.10;;
3993;SDS011;2011;48.238;13.948;2023-03-01T00:13:16;22.27;;;13.07;;
3993;SDS011;2011;48.238;13.948;2023-03-01T00:15:43;23.25;;;13.50;;
3993;SDS011;2011;48.238;13.948;2023-03-01T00:18:10;25.75;;;15.20;;
3993;SDS011;2011;48.238;13.948;2023-03-01T00:20:37;23.80;;;13.80;;
3993;SDS011;2011;48.238;13.948;2023-03-01T00:23:04;27.17;;;14.57;;
3993;SDS011;2011;48.238;13.948;2023-03-01T00:25:32;24.67;;;13.27;;
3993;SDS011;2011;48.238;13.948;2023-03-01T00:27:59;22.30;;;13.48;;
3993;SDS011;2011;48.238;13.948;2023-03-01T00:30:26;26.90;;;14.85;;
3993;SDS011;2011;48.238;13.948;2023-03-01T00:32:53;27.40;;;15.10;;
3993;SDS011;2011;48.238;13.948;2023-03-01T00:35:20;25.50;;;14.00;;
3993;SDS011;2011;48.238;13.948;2023-03-01T00:37:48;25.40;;;13.93;;
3993;SDS011;2011;48.238;13.948;2023-03-01T00:40:18;27.40;;;13.73;;
3993;SDS011;2011;48.238;13.948;2023-03-01T00:42:47;27.45;;;13.70;;
3993;SDS011;2011;48.238;13.948;2023-03-01T00:45:13;27.25;;;15.38;;
3993;SDS011;2011;48.238;13.948;2023-03-01T00:47:40;23.55;;;13.77;;
3993;SDS011;2011;48.238;13.948;2023-03-01T00:50:08;22.60;;;14.20;;
3993;SDS011;2011;48.238;13.948;2023-03-01T00:52:36;23.35;;;13.45;;
3993;SDS011;2011;48.238;13.948;2023-03-01T00:55:04;28.70;;;14.25;;
3993;SDS011;2011;48.238;13.948;2023-03-01T00:57:32;25.77;;;14.68;;
3993;SDS011;2011;48.238;13.948;2023-03-01T01:00:00;24.80;;;14.23;;
3993;SDS011;2011;48.238;13.948;2023-03-01T01:02:28;28.90;;;14.95;;
3993;SDS011;2011;48.238;13.948;2023-03-01T01:04:55;24.15;;;14.77;;
3993;SDS011;2011;48.238;13.948;2023-03-01T01:07:22;23.63;;;14.43;;
3993;SDS011;2011;48.238;13.948;2023-03-01T01:09:49;28.33;;;14.07;;
3993;SDS011;2011;48.238;13.948;2023-03-01T01:12:16;22.20;;;13.07;;
3993;SDS011;2011;48.238;13.948;2023-03-01T01:14:43;22.23;;;13.75;;
3993;SDS011;2011;48.238;13.948;2023-03-01T01:17:12;26.88;;;13.98;;
3993;SDS011;2011;48.238;13.948;2023-03-01T01:19:39;28.20;;;14.98;;
3993;SDS011;2011;48.238;13.948;2023-03-01T01:22:06;27.20;;;14.15;;
3993;SDS011;2011;48.238;13.948;2023-03-01T01:24:33;27.63;;;14.20;;
3993;SDS011;2011;48.238;13.948;2023-03-01T01:27:01;26.13;;;13.40;;
3993;SDS011;2011;48.238;13.948;2023-03-01T01:29:28;25.60;;;14.95;;
3993;SDS011;2011;48.238;13.948;2023-03-01T01:31:55;23.13;;;13.25;;
3993;SDS011;2011;48.238;13.948;2023-03-01T01:34:23;25.02;;;14.52;;
3993;SDS011;2011;48.238;13.948;2023-03-01T01:36:50;25.25;;;13.38;;
3993;SDS011;2011;48.238;13.948;2023-03-01T01:39:19;29.65;;;13.77;;
3993;SDS011;2011;48.238;13.948;2023-03-01T01:41:46;28.60;;;15.23;;
3993;SDS011;2011;48.238;13.948;2023-03-01T01:44:14;25.27;;;15.00;;
3993;SDS011;2011;48.238;13.948;2023-03-01T01:46:44;28.58;;;15.35;;
3993;SDS011;2011;48.238;13.948;2023-03-01T01:49:18;23.05;;;12.95;;
3993;SDS011;2011;48.238;13.948;2023-03-01T01:51:53;24.67;;;13.90;;
3993;SDS011;2011;48.238;13.948;2023-03-01T01:54:24;26.20;;;15.07;;
3993;SDS011;2011;48.238;13.948;2023-03-01T01:56:56;27.10;;;15.15;;
3993;SDS011;2011;48.238;13.948;2023-03-01T01:59:26;24.85;;;14.30;;
3993;SDS011;2011;48.238;13.948;2023-03-01T02:01:55;29.52;;;14.65;;
3993;SDS011;2011;48.238;13.948;2023-03-01T02:04:25;26.17;;;14.93;;
3993;SDS011;2011;48.238;13.948;2023-03-01T02:06:55;26.48;;;14.25;;
3993;SDS011;2011;48.238;13.948;2023-03-01T02:09:27;23.50;;;13.38;;
3993;SDS011;2011;48.238;13.948;2023-03-01T02:11:56;26.45;;;14.20;;
3993;SDS011;2011;48.238;13.948;2023-03-01T02:14:24;27.55;;;14.00;;
3993;SDS011;2011;48.238;13.948;2023-03-01T02:16:51;23.42;;;13.80;;
3993;SDS011;2011;48.238;13.948;2023-03-01T02:19:22;26.40;;;14.10;;
3993;SDS011;2011;48.238;13.948;2023-03-01T02:22:00;25.20;;;14.23;;
3993;SDS011;2011;48.238;13.948;2023-03-01T02:24:38;22.65;;;14.05;;
3993;SDS011;2011;48.238;13.948;2023-03-01T02:27:13;24.02;;;14.77;;
3993;SDS011;2011;48.238;13.948;2023-03-01T02:29:43;28.40;;;14.38;;
3993;SDS011;2011;48.238;13.948;2023-03-01T02:32:10;26.58;;;14.80;;
3993;SDS011;2011;48.238;13.948;2023-03-01T02:34:40;24.23;;;13.20;;
3993;SDS011;2011;48.238;13.948;2023-03-01T02:37:09;25.23;;;13.35;;
3993;SDS011;2011;48.238;13.948;2023-03-01T02:39:40;27.08;;;14.88;;
3993;SDS011;2011;48.238;13.948;2023-03-01T02:42:10;27.02;;;14.07;;
3993;SDS011;2011;48.238;13.948;2023-03-01T02:44:39;26.58;;;14.77;;
3993;SDS011;2011;48.238;13.948;2023-03-01T02:47:07;27.20;;;14.80;;
3993;SDS011;2011;48.238;13.948;2023-03-01T02:49:35;27.90;;;14.35;;
3993;SDS011;2011;48.238;13.948;2023-03-01T02:54:58;31.05;;;14.70;;
3993;SDS011;2011;48.238;13.948;2023-03-01T02:57:27;25.70;;;13.32;;
3993;SDS011;2011;48.238;13.948;2023-03-01T02:59:56;28.45;;;14.30;;
3993;SDS011;2011;48.238;13.948;2023-03-01T03:02:33;30.80;;;15.10;;
3993;SDS011;2011;48.238;13.948;2023-03-01T03:05:05;27.23;;;14.60;;
3993;SDS011;2011;48.238;13.948;2023-03-01T03:07:34;26.27;;;14.57;;
3993;SDS011;2011;48.238;13.948;2023-03-01T03:10:03;29.60;;;14.80;;
3993;SDS011;2011;48.238;13.948;2023-03-01T03:12:32;27.48;;;14.52;;
3993;SDS011;2011;48.238;13.948;2023-03-01T03:14:59;22.52;;;13.27;;
3993;SDS011;2011;48.238;13.948;2023-03-01T03:17:26;28.77;;;15.43;;
3993;SDS011;2011;48.238;13.948;2023-03-01T03:19:55;29.70;;;15.15;;
3993;SDS011;2011;48.238;13.948;2023-03-01T03:22:22;26.40;;;15.05;;
3993;SDS011;2011;48.238;13.948;2023-03-01T03:24:49;29.13;;;14.60;;
3993;SDS011;2011;48.238;13.948;2023-03-01T03:27:16;26.65;;;14.93;;
3993;SDS011;2011;48.238;13.948;2023-03-01T03:29:43;26.88;;;14.32;;
3993;SDS011;2011;48.238;13.948;2023-03-01T03:32:10;27.92;;;13.95;;
3993;SDS011;2011;48.238;13.948;2023-03-01T03:34:37;27.50;;;13.88;;
3993;SDS011;2011;48.238;13.948;2023-03-01T03:37:05;28.98;;;14.98;;
3993;SDS011;2011;48.238;13.948;2023-03-01T03:39:52;33.53;;;15.50;;
3993;SDS011;2011;48.238;13.948;2023-03-01T03:42:20;28.13;;;14.00;;
3993;SDS011;2011;48.238;13.948;2023-03-01T03:44:48;28.30;;;15.75;;
3993;SDS011;2011;48.238;13.948;2023-03-01T03:47:15;27.83;;;14.77;;
3993;SDS011;2011;48.238;13.948;2023-03-01T03:49:42;30.85;;;16.40;;
3993;SDS011;2011;48.238;13.948;2023-03-01T03:52:10;31.08;;;15.23;;
3993;SDS011;2011;48.238;13.948;2023-03-01T03:54:38;38.22;;;16.48;;
3993;SDS011;2011;48.238;13.948;2023-03-01T03:57:06;27.60;;;15.40;;
3993;SDS011;2011;48.238;13.948;2023-03-01T03:59:33;30.92;;;16.05;;
3993;SDS011;2011;48.238;13.948;2023-03-01T04:02:00;34.35;;;14.70;;
3993;SDS011;2011;48.238;13.948;2023-03-01T04:04:27;29.50;;;16.10;;
3993;SDS011;2011;48.238;13.948;2023-03-01T04:06:54;31.02;;;15.10;;
3993;SDS011;2011;48.238;13.948;2023-03-01T04:09:23;30.25;;;15.88;;
3993;SDS011;2011;48.238;13.948;2023-03-01T04:11:50;24.40;;;14.55;;
3993;SDS011;2011;48.238;13.948;2023-03-01T04:14:17;30.63;;;16.25;;
3993;SDS011;2011;48.238;13.948;2023-03-01T04:16:44;27.00;;;15.32;;
3993;SDS011;2011;48.238;13.948;2023-03-01T04:19:11;30.55;;;15.65;;
3993;SDS011;2011;48.238;13.948;2023-03-01T04:21:40;30.88;;;15.68;;
3993;SDS011;2011;48.238;13.948;2023-03-01T04:24:07;38.83;;;17.80;;
3993;SDS011;2011;48.238;13.948;2023-03-01T04:26:36;30.40;;;16.55;;
3993;SDS011;2011;48.238;13.948;2023-03-01T04:29:03;31.60;;;14.95;;
3993;SDS011;2011;48.238;13.948;2023-03-01T04:31:30;32.13;;;17.15;;
3993;SDS011;2011;48.238;13.948;2023-03-01T04:33:57;32.38;;;16.60;;
3993;SDS011;2011;48.238;13.948;2023-03-01T04:36:25;30.80;;;16.63;;
3993;SDS011;2011;48.238;13.948;2023-03-01T04:38:53;30.25;;;16.05;;
3993;SDS011;2011;48.238;13.948;2023-03-01T04:41:22;36.72;;;17.40;;
3993;SDS011;2011;48.238;13.948;2023-03-01T04:43:52;30.92;;;16.15;;
3993;SDS011;2011;48.238;13.948;2023-03-01T04:46:19;32.30;;;16.20;;
3993;SDS011;2011;48.238;13.948;2023-03-01T04:48:47;31.13;;;15.55;;
3993;SDS011;2011;48.238;13.948;2023-03-01T04:51:14;30.52;;;15.38;;
3993;SDS011;2011;48.238;13.948;2023-03-01T04:53:42;29.70;;;15.75;;
3993;SDS011;2011;48.238;13.948;2023-03-01T04:56:09;33.33;;;16.08;;
3993;SDS011;2011;48.238;13.948;2023-03-01T04:58:38;29.92;;;16.13;;
3993;SDS011;2011;48.238;13.948;2023-03-01T05:01:11;32.78;;;16.60;;
3993;SDS011;2011;48.238;13.948;2023-03-01T05:03:41;31.55;;;16.23;;
3993;SDS011;2011;48.238;13.948;2023-03-01T05:06:09;33.75;;;16.67;;
3993;SDS011;2011;48.238;13.948;2023-03-01T05:08:37;33.15;;;16.88;;
3993;SDS011;2011;48.238;13.948;2023-03-01T05:11:04;28.92;;;16.85;;
3993;SDS011;2011;48.238;13.948;2023-03-01T05:13:34;30.20;;;16.15;;
3993;SDS011;2011;48.238;13.948;2023-03-01T05:16:02;35.88;;;15.55;;
3993;SDS011;2011;48.238;13.948;2023-03-01T05:18:32;35.33;;;17.10;;
3993;SDS011;2011;48.238;13.948;2023-03-01T05:21:01;33.75;;;17.13;;
3993;SDS011;2011;48.238;13.948;2023-03-01T05:23:30;32.97;;;17.17;;
3993;SDS011;2011;48.238;13.948;2023-03-01T05:25:57;39.95;;;20.02;;
3993;SDS011;2011;48.238;13.948;2023-03-01T05:28:25;34.72;;;19.40;;
3993;SDS011;2011;48.238;13.948;2023-03-01T05:30:54;32.63;;;17.70;;
3993;SDS011;2011;48.238;13.948;2023-03-01T05:33:22;30.23;;;16.42;;
3993;SDS011;2011;48.238;13.948;2023-03-01T05:35:50;39.05;;;17.85;;
3993;SDS011;2011;48.238;13.948;2023-03-01T05:38:18;35.58;;;16.67;;
3993;SDS011;2011;48.238;13.948;2023-03-01T05:40:47;33.67;;;18.75;;
3993;SDS011;2011;48.238;13.948;2023-03-01T05:43:15;31.92;;;16.42;;
3993;SDS011;2011;48.238;13.948;2023-03-01T05:45:43;33.78;;;17.63;;
3993;SDS011;2011;48.238;13.948;2023-03-01T05:48:11;36.28;;;18.23;;
3993;SDS011;2011;48.238;13.948;2023-03-01T05:50:39;34.65;;;18.98;;
3993;SDS011;2011;48.238;13.948;2023-03-01T05:53:10;42.47;;;19.00;;
3993;SDS011;2011;48.238;13.948;2023-03-01T05:55:38;46.95;;;18.70;;
3993;SDS011;2011;48.238;13.948;2023-03-01T05:58:06;32.78;;;18.35;;
3993;SDS011;2011;48.238;13.948;2023-03-01T06:00:35;33.78;;;17.55;;
3993;SDS011;2011;48.238;13.948;2023-03-01T06:03:02;38.35;;;17.15;;
3993;SDS011;2011;48.238;13.948;2023-03-01T06:05:29;31.05;;;16.30;;
3993;SDS011;2011;48.238;13.948;2023-03-01T06:07:58;33.20;;;16.55;;
3993;SDS011;2011;48.238;13.948;2023-03-01T06:10:27;36.42;;;17.55;;
3993;SDS011;2011;48.238;13.948;2023-03-01T06:12:55;35.70;;;18.63;;
3993;SDS011;2011;48.238;13.948;2023-03-01T06:15:22;38.05;;;17.30;;
3993;SDS011;2011;48.238;13.948;2023-03-01T06:17:49;35.88;;;17.15;;
3993;SDS011;2011;48.238;13.948;2023-03-01T06:20:17;31.25;;;17.45;;
3993;SDS011;2011;48.238;13.948;2023-03-01T06:22:46;40.00;;;17.98;;
3993;SDS011;2011;48.238;13.948;2023-03-01T06:25:14;33.03;;;16.92;;
3993;SDS011;2011;48.238;13.948;2023-03-01T06:27:44;35.60;;;17.33;;
3993;SDS011;2011;48.238;13.948;2023-03-01T06:30:12;37.78;;;18.92;;
3993;SDS011;2011;48.238;13.948;2023-03-01T06:32:40;42.92;;;18.52;;
3993;SDS011;2011;48.238;13.948;2023-03-01T06:35:08;35.90;;;17.73;;
3993;SDS011;2011;48.238;13.948;2023-03-01T06:37:36;36.85;;;19.05;;
3993;SDS011;2011;48.238;13.948;2023-03-01T06:40:03;40.05;;;19.05;;
3993;SDS011;2011;48.238;13.948;2023-03-01T06:42:33;32.67;;;17.85;;
3993;SDS011;2011;48.238;13.948;2023-03-01T06:45:01;41.78;;;19.67;;
3993;SDS011;2011;48.238;13.948;2023-03-01T06:47:29;40.25;;;19.42;;
3993;SDS011;2011;48.238;13.948;2023-03-01T06:49:56;37.35;;;18.80;;
3993;SDS011;2011;48.238;13.948;2023-03-01T06:52:23;37.65;;;19.90;;
3993;SDS011;2011;48.238;13.948;2023-03-01T06:54:50;43.28;;;20.95;;
3993;SDS011;2011;48.238;13.948;2023-03-01T06:57:17;50.55;;;19.95;;
3993;SDS011;2011;48.238;13.948;2023-03-01T06:59:44;36.35;;;18.95;;
3993;SDS011;2011;48.238;13.948;2023-03-01T07:02:14;59.15;;;21.15;;
3993;SDS011;2011;48.238;13.948;2023-03-01T07:04:41;41.67;;;20.80;;
3993;SDS011;2011;48.238;13.948;2023-03-01T07:07:08;41.70;;;19.80;;
3993;SDS011;2011;48.238;13.948;2023-03-01T07:09:36;40.03;;;21.15;;
3993;SDS011;2011;48.238;13.948;2023-03-01T07:12:03;46.90;;;21.35;;
3993;SDS011;2011;48.238;13.948;2023-03-01T07:14:30;40.78;;;20.77;;
3993;SDS011;2011;48.238;13.948;2023-03-01T07:16:58;38.67;;;20.55;;
3993;SDS011;2011;48.238;13.948;2023-03-01T07:19:26;44.22;;;20.27;;
3993;SDS011;2011;48.238;13.948;2023-03-01T07:21:53;37.45;;;19.67;;
3993;SDS011;2011;48.238;13.948;2023-03-01T07:24:21;42.00;;;20.75;;
3993;SDS011;2011;48.238;13.948;2023-03-01T07:26:48;41.42;;;21.50;;
3993;SDS011;2011;48.238;13.948;2023-03-01T07:29:16;44.83;;;20.55;;
3993;SDS011;2011;48.238;13.948;2023-03-01T07:31:43;43.13;;;21.10;;
3993;SDS011;2011;48.238;13.948;2023-03-01T07:34:10;53.08;;;21.30;;
3993;SDS011;2011;48.238;13.948;2023-03-01T07:36:39;41.25;;;21.15;;
3993;SDS011;2011;48.238;13.948;2023-03-01T07:39:08;41.47;;;21.23;;
3993;SDS011;2011;48.238;13.948;2023-03-01T07:41:35;45.72;;;20.52;;
3993;SDS011;2011;48.238;13.948;2023-03-01T07:44:03;39.50;;;20.92;;
3993;SDS011;2011;48.238;13.948;2023-03-01T07:46:30;41.53;;;21.42;;
3993;SDS011;2011;48.238;13.948;2023-03-01T07:48:57;42.28;;;20.90;;
3993;SDS011;2011;48.238;13.948;2023-03-01T07:51:24;52.00;;;20.80;;
3993;SDS011;2011;48.238;13.948;2023-03-01T07:53:52;37.97;;;19.80;;
3993;SDS011;2011;48.238;13.948;2023-03-01T07:56:20;43.40;;;20.50;;
3993;SDS011;2011;48.238;13.948;2023-03-01T07:58:47;42.78;;;20.83;;
3993;SDS011;2011;48.238;13.948;2023-03-01T08:01:15;37.80;;;19.95;;
3993;SDS011;2011;48.238;13.948;2023-03-01T08:03:44;43.50;;;21.45;;
3993;SDS011;2011;48.238;13.948;2023-03-01T08:06:12;40.55;;;20.98;;
3993;SDS011;2011;48.238;13.948;2023-03-01T08:08:40;40.85;;;20.70;;
3993;SDS011;2011;48.238;13.948;2023-03-01T08:11:10;40.60;;;20.75;;
3993;SDS011;2011;48.238;13.948;2023-03-01T08:13:39;35.28;;;19.77;;
3993;SDS011;2011;48.238;13.948;2023-03-01T08:16:07;39.05;;;19.33;;
3993;SDS011;2011;48.238;13.948;2023-03-01T08:18:35;40.65;;;20.65;;
3993;SDS011;2011;48.238;13.948;2023-03-01T08:21:04;32.97;;;19.27;;
3993;SDS011;2011;48.238;13.948;2023-03-01T08:23:32;37.33;;;19.40;;
3993;SDS011;2011;48.238;13.948;2023-03-01T08:26:06;38.45;;;19.83;;
3993;SDS011;2011;48.238;13.948;2023-03-01T08:28:36;38.88;;;19.20;;
3993;SDS011;2011;48.238;13.948;2023-03-01T08:31:03;39.67;;;19.60;;
3993;SDS011;2011;48.238;13.948;2023-03-01T08:33:39;40.97;;;20.05;;
3993;SDS011;2011;48.238;13.948;2023-03-01T08:36:07;42.75;;;21.50;;
3993;SDS011;2011;48.238;13.948;2023-03-01T08:38:34;38.13;;;19.15;;
3993;SDS011;2011;48.238;13.948;2023-03-01T08:41:01;40.40;;;19.63;;
3993;SDS011;2011;48.238;13.948;2023-03-01T08:43:29;36.70;;;19.30;;
3993;SDS011;2011;48.238;13.948;2023-03-01T08:45:58;39.05;;;19.67;;
3993;SDS011;2011;48.238;13.948;2023-03-01T08:48:25;39.25;;;19.73;;
3993;SDS011;2011;48.238;13.948;2023-03-01T08:50:53;40.70;;;18.80;;
3993;SDS011;2011;48.238;13.948;2023-03-01T08:53:20;33.67;;;18.25;;
3993;SDS011;2011;48.238;13.948;2023-03-01T08:55:47;34.58;;;18.10;;
3993;SDS011;2011;48.238;13.948;2023-03-01T08:58:14;35.40;;;18.87;;
3993;SDS011;2011;48.238;13.948;2023-03-01T09:00:41;35.67;;;19.03;;
3993;SDS011;2011;48.238;13.948;2023-03-01T09:03:09;36.75;;;19.40;;
3993;SDS011;2011;48.238;13.948;2023-03-01T09:05:36;33.10;;;18.03;;
3993;SDS011;2011;48.238;13.948;2023-03-01T09:08:03;40.90;;;20.73;;
3993;SDS011;2011;48.238;13.948;2023-03-01T09:10:30;30.73;;;17.37;;
3993;SDS011;2011;48.238;13.948;2023-03-01T09:12:57;33.72;;;19.13;;
3993;SDS011;2011;48.238;13.948;2023-03-01T09:15:24;37.53;;;19.70;;
3993;SDS011;2011;48.238;13.948;2023-03-01T09:17:51;35.00;;;20.40;;
3993;SDS011;2011;48.238;13.948;2023-03-01T09:20:20;39.43;;;20.57;;
3993;SDS011;2011;48.238;13.948;2023-03-01T09:22:47;38.03;;;19.70;;
3993;SDS011;2011;48.238;13.948;2023-03-01T09:25:14;35.00;;;19.53;;
3993;SDS011;2011;48.238;13.948;2023-03-01T09:27:41;38.40;;;19.53;;
3993;SDS011;2011;48.238;13.948;2023-03-01T09:30:08;39.93;;;20.70;;
3993;SDS011;2011;48.238;13.948;2023-03-01T09:32:36;36.37;;;18.97;;
3993;SDS011;2011;48.238;13.948;2023-03-01T09:35:08;35.70;;;19.63;;
3993;SDS011;2011;48.238;13.948;2023-03-01T09:37:36;36.87;;;19.70;;
3993;SDS011;2011;48.238;13.948;2023-03-01T09:40:05;36.30;;;20.07;;
3993;SDS011;2011;48.238;13.948;2023-03-01T09:42:45;34.50;;;18.90;;
3993;SDS011;2011;48.238;13.948;2023-03-01T09:45:18;44.13;;;21.63;;
3993;SDS011;2011;48.238;13.948;2023-03-01T09:47:52;33.77;;;18.80;;
3993;SDS011;2011;48.238;13.948;2023-03-01T09:50:20;33.80;;;18.97;;
3993;SDS011;2011;48.238;13.948;2023-03-01T09:52:50;33.10;;;19.00;;
3993;SDS011;2011;48.238;13.948;2023-03-01T09:55:25;33.60;;;18.70;;
3993;SDS011;2011;48.238;13.948;2023-03-01T09:57:56;42.00;;;19.53;;
3993;SDS011;2011;48.238;13.948;2023-03-01T10:00:33;38.53;;;18.67;;
3993;SDS011;2011;48.238;13.948;2023-03-01T10:03:08;40.10;;;19.70;;
3993;SDS011;2011;48.238;13.948;2023-03-01T10:05:43;32.20;;;17.67;;
3993;SDS011;2011;48.238;13.948;2023-03-01T10:11:16;34.63;;;18.90;;
3993;SDS011;2011;48.238;13.948;2023-03-01T10:13:47;33.50;;;18.40;;
3993;SDS011;2011;48.238;13.948;2023-03-01T10:16:21;28.90;;;16.30;;
3993;SDS011;2011;48.238;13.948;2023-03-01T10:18:53;29.23;;;16.70;;
3993;SDS011;2011;48.238;13.948;2023-03-01T10:21:25;31.77;;;16.47;;
3993;SDS011;2011;48.238;13.948;2023-03-01T10:23:56;28.93;;;15.17;;
3993;SDS011;2011;48.238;13.948;2023-03-01T10:26:38;30.47;;;14.73;;
3993;SDS011;2011;48.238;13.948;2023-03-01T10:29:13;35.47;;;15.57;;
3993;SDS011;2011;48.238;13.948;2023-03-01T10:31:41;27.67;;;14.40;;
3993;SDS011;2011;48.238;13.948;2023-03-01T10:34:12;25.17;;;13.50;;
3993;SDS011;2011;48.238;13.948;2023-03-01T10:36:42;27.80;;;14.53;;
3993;SDS011;2011;48.238;13.948;2023-03-01T10:39:16;22.17;;;12.67;;
3993;SDS011;2011;48.238;13.948;2023-03-01T10:41:51;25.30;;;12.30;;
3993;SDS011;2011;48.238;13.948;2023-03-01T10:44:37;26.67;;;12.70;;
3993;SDS011;2011;48.238;13.948;2023-03-01T10:47:13;24.00;;;13.00;;
3993;SDS011;2011;48.238;13.948;2023-03-01T10:49:53;23.80;;;12.13;;
3993;SDS011;2011;48.238;13.948;2023-03-01T10:52:22;20.00;;;11.97;;
3993;SDS011;2011;48.238;13.948;2023-03-01T10:54:54;24.20;;;13.60;;
3993;SDS011;2011;48.238;13.948;2023-03-01T10:57:33;23.93;;;12.57;;
3993;SDS011;2011;48.238;13.948;2023-03-01T11:00:14;17.43;;;10.80;;
3993;SDS011;2011;48.238;13.948;2023-03-01T11:02:45;21.43;;;11.63;;
3993;SDS011;2011;48.238;13.948;2023-03-01T11:05:20;22.43;;;12.27;;
3993;SDS011;2011;48.238;13.948;2023-03-01T11:07:50;24.20;;;11.73;;
3993;SDS011;2011;48.238;13.948;2023-03-01T11:10:21;23.67;;;11.30;;
3993;SDS011;2011;48.238;13.948;2023-03-01T11:12:50;23.77;;;11.30;;
3993;SDS011;2011;48.238;13.948;2023-03-01T11:15:23;18.27;;;10.80;;
3993;SDS011;2011;48.238;13.948;2023-03-01T11:17:57;17.80;;;11.50;;
3993;SDS011;2011;48.238;13.948;2023-03-01T11:20:25;22.70;;;11.40;;
3993;SDS011;2011;48.238;13.948;2023-03-01T11:22:57;34.03;;;11.10;;
3993;SDS011;2011;48.238;13.948;2023-03-01T11:25:29;24.73;;;11.40;;
3993;SDS011;2011;48.238;13.948;2023-03-01T11:27:59;22.53;;;10.60;;
3993;SDS011;2011;48.238;13.948;2023-03-01T11:30:30;21.73;;;11.30;;
3993;SDS011;2011;48.238;13.948;2023-03-01T11:33:05;20.10;;;11.77;;
3993;SDS011;2011;48.238;13.948;2023-03-01T11:35:41;19.73;;;10.23;;
3993;SDS011;2011;48.238;13.948;2023-03-01T11:38:19;19.00;;;10.37;;
3993;SDS011;2011;48.238;13.948;2023-03-01T11:40:52;21.37;;;10.47;;
3993;SDS011;2011;48.238;13.948;2023-03-01T11:43:29;17.37;;;10.60;;
3993;SDS011;2011;48.238;13.948;2023-03-01T11:49:15;18.40;;;10.67;;
3993;SDS011;2011;48.238;13.948;2023-03-01T11:51:56;16.57;;;9.50;;
3993;SDS011;2011;48.238;13.948;2023-03-01T11:54:30;21.63;;;10.90;;
3993;SDS011;2011;48.238;13.948;2023-03-01T11:57:14;19.47;;;10.00;;
3993;SDS011;2011;48.238;13.948;2023-03-01T12:00:02;20.60;;;10.00;;
3993;SDS011;2011;48.238;13.948;2023-03-01T12:05:54;19.77;;;10.13;;
3993;SDS011;2011;48.238;13.948;2023-03-01T12:08:33;33.63;;;11.30;;
3993;SDS011;2011;48.238;13.948;2023-03-01T12:11:06;16.23;;;9.67;;
3993;SDS011;2011;48.238;13.948;2023-03-01T12:13:54;28.93;;;10.70;;
3993;SDS011;2011;48.238;13.948;2023-03-01T12:16:38;18.80;;;9.93;;
3993;SDS011;2011;48.238;13.948;2023-03-01T12:19:22;24.27;;;9.77;;
3993;SDS011;2011;48.238;13.948;2023-03-01T12:22:03;16.53;;;9.57;;
3993;SDS011;2011;48.238;13.948;2023-03-01T12:27:49;19.10;;;9.63;;
3993;SDS011;2011;48.238;13.948;2023-03-01T12:30:28;22.10;;;9.60;;
3993;SDS011;2011;48.238;13.948;2023-03-01T12:33:10;18.27;;;10.80;;
3993;SDS011;2011;48.238;13.948;2023-03-01T12:35:48;24.43;;;11.50;;
3993;SDS011;2011;48.238;13.948;2023-03-01T12:38:39;20.10;;;11.20;;
3993;SDS011;2011;48.238;13.948;2023-03-01T12:41:13;47.50;;;11.63;;
3993;SDS011;2011;48.238;13.948;2023-03-01T12:43:57;19.30;;;10.10;;
3993;SDS011;2011;48.238;13.948;2023-03-01T12:46:36;22.20;;;10.63;;
3993;SDS011;2011;48.238;13.948;2023-03-01T12:49:12;19.20;;;10.13;;
3993;SDS011;2011;48.238;13.948;2023-03-01T12:51:42;23.97;;;9.37;;
3993;SDS011;2011;48.238;13.948;2023-03-01T12:54:19;16.90;;;9.97;;
3993;SDS011;2011;48.238;13.948;2023-03-01T12:56:52;23.43;;;9.47;;
3993;SDS011;2011;48.238;13.948;2023-03-01T12:59:21;16.40;;;7.97;;
3993;SDS011;2011;48.238;13.948;2023-03-01T13:01:56;20.27;;;9.80;;
3993;SDS011;2011;48.238;13.948;2023-03-01T13:04:35;17.30;;;9.37;;
3993;SDS011;2011;48.238;13.948;2023-03-01T13:07:19;17.07;;;9.37;;
3993;SDS011;2011;48.238;13.948;2023-03-01T13:09:54;18.57;;;9.40;;
3993;SDS011;2011;48.238;13.948;2023-03-01T13:12:44;17.20;;;9.20;;
3993;SDS011;2011;48.238;13.948;2023-03-01T13:15:28;16.97;;;9.20;;
3993;SDS011;2011;48.238;13.948;2023-03-01T13:17:59;22.20;;;10.23;;
3993;SDS011;2011;48.238;13.948;2023-03-01T13:20:30;17.27;;;9.57;;
3993;SDS011;2011;48.238;13.948;2023-03-01T13:23:02;22.30;;;10.63;;
3993;SDS011;2011;48.238;13.948;2023-03-01T13:25:31;16.13;;;9.10;;
3993;SDS011;2011;48.238;13.948;2023-03-01T13:31:01;21.47;;;10.50;;
3993;SDS011;2011;48.238;13.948;2023-03-01T13:33:43;25.80;;;10.40;;
3993;SDS011;2011;48.238;13.948;2023-03-01T13:36:11;20.63;;;11.10;;
3993;SDS011;2011;48.238;13.948;2023-03-01T13:41:58;25.97;;;11.70;;
3993;SDS011;2011;48.238;13.948;2023-03-01T13:44:31;22.40;;;11.43;;
3993;SDS011;2011;48.238;13.948;2023-03-01T13:47:03;23.50;;;11.40;;
3993;SDS011;2011;48.238;13.948;2023-03-01T13:49:44;19.47;;;11.43;;
3993;SDS011;2011;48.238;13.948;2023-03-01T13:52:27;21.70;;;11.00;;
3993;SDS011;2011;48.238;13.948;2023-03-01T13:55:00;22.83;;;10.50;;
3993;SDS011;2011;48.238;13.948;2023-03-01T13:57:30;19.60;;;10.73;;
3993;SDS011;2011;48.238;13.948;2023-03-01T14:00:00;25.43;;;11.70;;
3993;SDS011;2011;48.238;13.948;2023-03-01T14:02:28;25.23;;;12.30;;
3993;SDS011;2011;48.238;13.948;2023-03-01T14:04:59;24.50;;;12.60;;
3993;SDS011;2011;48.238;13.948;2023-03-01T14:07:27;23.23;;;12.03;;
3993;SDS011;2011;48.238;13.948;2023-03-01T14:09:56;21.13;;;11.70;;
3993;SDS011;2011;48.238;13.948;2023-03-01T14:12:28;21.83;;;11.70;;
3993;SDS011;2011;48.238;13.948;2023-03-01T14:15:06;25.80;;;12.50;;
3993;SDS011;2011;48.238;13.948;2023-03-01T14:17:49;29.20;;;11.70;;
3993;SDS011;2011;48.238;13.948;2023-03-01T14:20:26;32.70;;;12.00;;
3993;SDS011;2011;48.238;13.948;2023-03-01T14:22:55;22.47;;;10.83;;
3993;SDS011;2011;48.238;13.948;2023-03-01T14:25:26;20.53;;;11.47;;
3993;SDS011;2011;48.238;13.948;2023-03-01T14:28:12;24.37;;;10.63;;
3993;SDS011;2011;48.238;13.948;2023-03-01T14:30:44;25.07;;;11.83;;
3993;SDS011;2011;48.238;13.948;2023-03-01T14:33:19;26.33;;;11.93;;
3993;SDS011;2011;48.238;13.948;2023-03-01T14:35:54;22.20;;;12.17;;
3993;SDS011;2011;48.238;13.948;2023-03-01T14:38:22;21.90;;;12.60;;
3993;SDS011;2011;48.238;13.948;2023-03-01T14:40:56;21.60;;;12.43;;
3993;SDS011;2011;48.238;13.948;2023-03-01T14:43:25;24.80;;;11.40;;
3993;SDS011;2011;48.238;13.948;2023-03-01T14:45:52;31.77;;;11.70;;
3993;SDS011;2011;48.238;13.948;2023-03-01T14:48:19;24.83;;;11.93;;
3993;SDS011;2011;48.238;13.948;2023-03-01T14:50:47;28.23;;;11.97;;
3993;SDS011;2011;48.238;13.948;2023-03-01T14:53:17;19.07;;;11.30;;
3993;SDS011;2011;48.238;13.948;2023-03-01T14:55:46;27.27;;;10.80;;
3993;SDS011;2011;48.238;13.948;2023-03-01T14:58:18;20.40;;;11.97;;
3993;SDS011;2011;48.238;13.948;2023-03-01T15:00:48;22.83;;;11.40;;
3993;SDS011;2011;48.238;13.948;2023-03-01T15:03:20;19.60;;;10.90;;
3993;SDS011;2011;48.238;13.948;2023-03-01T15:05:56;24.37;;;11.67;;
3993;SDS011;2011;48.238;13.948;2023-03-01T15:08:25;24.13;;;12.07;;
3993;SDS011;2011;48.238;13.948;2023-03-01T15:10:59;23.27;;;11.20;;
3993;SDS011;2011;48.238;13.948;2023-03-01T15:13:29;22.97;;;11.27;;
3993;SDS011;2011;48.238;13.948;2023-03-01T15:16:04;27.93;;;12.13;;